sensor_id;sensor_type;location;lat;lon;timestamp;P1;durP1;ratioP1;P2;durP2;ratioP2
25846;SDS011;13676;50.168;8.568;2023-07-24T00:01:55;1.80;;;1.30;;
25846;SDS011;13676;50.168;8.568;2023-07-24T00:04:21;3.63;;;1.30;;
25846;SDS011;13676;50.168;8.568;2023-07-24T00:14:14;2.17;;;1.38;;
25846;SDS011;13676;50.168;8.568;2023-07-24T00:16:40;4.95;;;1.48;;
25846;SDS011;13676;50.168;8.568;2023-07-24T00:19:05;2.05;;;1.40;;
25846;SDS011;13676;50.168;8.568;2023-07-24T00:21:33;4.95;;;1.83;;
25846;SDS011;13676;50.168;8.568;2023-07-24T00:23:59;2.70;;;1.48;;
25846;SDS011;13676;50.168;8.568;2023-07-24T00:26:24;2.60;;;1.50;;
25846;SDS011;13676;50.168;8.568;2023-07-24T00:28:49;1.70;;;1.10;;
25846;SDS011;13676;50.168;8.568;2023-07-24T00:31:15;3.58;;;1.75;;
25846;SDS011;13676;50.168;8.568;2023-07-24T00:33:41;2.13;;;1.70;;
25846;SDS011;13676;50.168;8.568;2023-07-24T00:36:06;2.15;;;1.40;;
25846;SDS011;13676;50.168;8.568;2023-07-24T00:38:31;1.80;;;1.40;;
25846;SDS011;13676;50.168;8.568;2023-07-24T00:40:57;1.85;;;1.60;;
25846;SDS011;13676;50.168;8.568;2023-07-24T00:43:45;2.10;;;1.58;;
25846;SDS011;13676;50.168;8.568;2023-07-24T00:46:11;2.47;;;1.52;;
25846;SDS011;13676;50.168;8.568;2023-07-24T00:48:37;1.85;;;1.60;;
25846;SDS011;13676;50.168;8.568;2023-07-24T00:51:02;2.22;;;1.65;;
25846;SDS011;13676;50.168;8.568;2023-07-24T00:53:28;1.75;;;1.35;;
25846;SDS011;13676;50.168;8.568;2023-07-24T00:55:53;1.80;;;1.45;;
25846;SDS011;13676;50.168;8.568;2023-07-24T00:58:19;1.35;;;1.25;;
25846;SDS011;13676;50.168;8.568;2023-07-24T01:00:44;2.53;;;1.65;;
25846;SDS011;13676;50.168;8.568;2023-07-24T01:03:10;1.80;;;1.60;;
25846;SDS011;13676;50.168;8.568;2023-07-24T01:05:37;2.03;;;1.60;;
25846;SDS011;13676;50.168;8.568;2023-07-24T01:08:03;1.75;;;1.52;;
25846;SDS011;13676;50.168;8.568;2023-07-24T01:10:29;2.10;;;1.55;;
25846;SDS011;13676;50.168;8.568;2023-07-24T01:13:14;1.40;;;1.30;;
25846;SDS011;13676;50.168;8.568;2023-07-24T01:15:42;2.83;;;1.63;;
25846;SDS011;13676;50.168;8.568;2023-07-24T01:18:10;1.38;;;1.20;;
25846;SDS011;13676;50.168;8.568;2023-07-24T01:20:37;2.38;;;1.58;;
25846;SDS011;13676;50.168;8.568;2023-07-24T01:30:46;2.50;;;1.40;;
25846;SDS011;13676;50.168;8.568;2023-07-24T01:33:11;1.63;;;1.30;;
25846;SDS011;13676;50.168;8.568;2023-07-24T01:35:36;2.17;;;1.30;;
25846;SDS011;13676;50.168;8.568;2023-07-24T01:38:03;2.42;;;1.40;;
25846;SDS011;13676;50.168;8.568;2023-07-24T01:40:29;1.80;;;1.40;;
25846;SDS011;13676;50.168;8.568;2023-07-24T01:42:55;2.25;;;1.40;;
25846;SDS011;13676;50.168;8.568;2023-07-24T01:45:24;2.28;;;1.63;;
25846;SDS011;13676;50.168;8.568;2023-07-24T01:47:49;1.58;;;1.23;;
25846;SDS011;13676;50.168;8.568;2023-07-24T01:50:15;2.40;;;1.65;;
25846;SDS011;13676;50.168;8.568;2023-07-24T01:52:41;4.70;;;1.50;;
25846;SDS011;13676;50.168;8.568;2023-07-24T01:55:06;2.17;;;1.30;;
25846;SDS011;13676;50.168;8.568;2023-07-24T02:00:03;1.85;;;1.55;;
25846;SDS011;13676;50.168;8.568;2023-07-24T02:04:57;1.60;;;1.00;;
25846;SDS011;13676;50.168;8.568;2023-07-24T02:07:22;1.92;;;1.42;;
25846;SDS011;13676;50.168;8.568;2023-07-24T02:09:47;2.17;;;1.40;;
25846;SDS011;13676;50.168;8.568;2023-07-24T02:12:13;1.73;;;1.55;;
25846;SDS011;13676;50.168;8.568;2023-07-24T02:14:39;1.70;;;1.38;;
25846;SDS011;13676;50.168;8.568;2023-07-24T02:17:04;2.50;;;1.23;;
25846;SDS011;13676;50.168;8.568;2023-07-24T02:19:30;1.98;;;1.55;;
25846;SDS011;13676;50.168;8.568;2023-07-24T02:21:55;2.47;;;1.45;;
25846;SDS011;13676;50.168;8.568;2023-07-24T02:24:20;4.68;;;1.67;;
25846;SDS011;13676;50.168;8.568;2023-07-24T02:26:46;2.28;;;1.70;;
25846;SDS011;13676;50.168;8.568;2023-07-24T02:29:11;3.45;;;1.25;;
25846;SDS011;13676;50.168;8.568;2023-07-24T02:31:38;1.85;;;1.63;;
25846;SDS011;13676;50.168;8.568;2023-07-24T02:34:03;2.23;;;1.47;;
25846;SDS011;13676;50.168;8.568;2023-07-24T02:36:28;1.77;;;1.17;;
25846;SDS011;13676;50.168;8.568;2023-07-24T02:38:54;1.60;;;1.20;;
25846;SDS011;13676;50.168;8.568;2023-07-24T02:41:19;1.48;;;1.38;;
25846;SDS011;13676;50.168;8.568;2023-07-24T02:43:45;1.98;;;1.40;;
25846;SDS011;13676;50.168;8.568;2023-07-24T02:46:10;2.05;;;1.42;;
25846;SDS011;13676;50.168;8.568;2023-07-24T02:48:36;1.42;;;1.30;;
25846;SDS011;13676;50.168;8.568;2023-07-24T02:51:02;1.45;;;1.15;;
25846;SDS011;13676;50.168;8.568;2023-07-24T02:53:27;2.88;;;1.30;;
25846;SDS011;13676;50.168;8.568;2023-07-24T02:55:52;2.20;;;1.60;;
25846;SDS011;13676;50.168;8.568;2023-07-24T02:58:18;1.40;;;1.30;;
25846;SDS011;13676;50.168;8.568;2023-07-24T03:00:43;1.90;;;1.50;;
25846;SDS011;13676;50.168;8.568;2023-07-24T03:03:09;2.45;;;1.60;;
25846;SDS011;13676;50.168;8.568;2023-07-24T03:05:35;1.65;;;1.30;;
25846;SDS011;13676;50.168;8.568;2023-07-24T03:08:00;2.03;;;1.58;;
25846;SDS011;13676;50.168;8.568;2023-07-24T03:10:25;2.25;;;1.27;;
25846;SDS011;13676;50.168;8.568;2023-07-24T03:12:51;2.60;;;1.40;;
25846;SDS011;13676;50.168;8.568;2023-07-24T03:15:16;1.77;;;1.33;;
25846;SDS011;13676;50.168;8.568;2023-07-24T03:17:42;4.40;;;1.50;;
25846;SDS011;13676;50.168;8.568;2023-07-24T03:22:41;2.85;;;1.67;;
25846;SDS011;13676;50.168;8.568;2023-07-24T03:25:06;1.40;;;1.30;;
25846;SDS011;13676;50.168;8.568;2023-07-24T03:27:32;2.15;;;1.67;;
25846;SDS011;13676;50.168;8.568;2023-07-24T03:29:58;2.40;;;1.60;;
25846;SDS011;13676;50.168;8.568;2023-07-24T03:32:23;2.38;;;1.58;;
25846;SDS011;13676;50.168;8.568;2023-07-24T03:34:49;4.10;;;2.00;;
25846;SDS011;13676;50.168;8.568;2023-07-24T03:37:14;2.53;;;1.60;;
25846;SDS011;13676;50.168;8.568;2023-07-24T03:39:40;3.95;;;1.58;;
25846;SDS011;13676;50.168;8.568;2023-07-24T03:42:06;2.95;;;1.60;;
25846;SDS011;13676;50.168;8.568;2023-07-24T03:44:31;4.40;;;1.60;;
25846;SDS011;13676;50.168;8.568;2023-07-24T03:46:57;2.45;;;1.65;;
25846;SDS011;13676;50.168;8.568;2023-07-24T03:49:23;2.95;;;1.42;;
25846;SDS011;13676;50.168;8.568;2023-07-24T03:51:49;2.70;;;1.67;;
25846;SDS011;13676;50.168;8.568;2023-07-24T03:54:14;2.20;;;1.70;;
25846;SDS011;13676;50.168;8.568;2023-07-24T03:56:40;1.90;;;1.40;;
25846;SDS011;13676;50.168;8.568;2023-07-24T03:59:05;3.05;;;1.50;;
25846;SDS011;13676;50.168;8.568;2023-07-24T04:01:31;3.25;;;1.50;;
25846;SDS011;13676;50.168;8.568;2023-07-24T04:03:57;3.70;;;1.63;;
25846;SDS011;13676;50.168;8.568;2023-07-24T04:06:23;1.80;;;1.50;;
25846;SDS011;13676;50.168;8.568;2023-07-24T04:08:49;3.65;;;2.00;;
25846;SDS011;13676;50.168;8.568;2023-07-24T04:11:14;2.92;;;1.50;;
25846;SDS011;13676;50.168;8.568;2023-07-24T04:13:39;2.55;;;1.60;;
25846;SDS011;13676;50.168;8.568;2023-07-24T04:16:05;4.45;;;1.83;;
25846;SDS011;13676;50.168;8.568;2023-07-24T04:18:31;2.05;;;1.70;;
25846;SDS011;13676;50.168;8.568;2023-07-24T04:20:56;2.70;;;1.80;;
25846;SDS011;13676;50.168;8.568;2023-07-24T04:23:22;4.80;;;1.45;;
25846;SDS011;13676;50.168;8.568;2023-07-24T04:25:49;3.88;;;1.63;;
25846;SDS011;13676;50.168;8.568;2023-07-24T04:30:40;2.80;;;1.70;;
25846;SDS011;13676;50.168;8.568;2023-07-24T04:33:06;2.20;;;1.70;;
25846;SDS011;13676;50.168;8.568;2023-07-24T04:35:32;3.50;;;1.52;;
25846;SDS011;13676;50.168;8.568;2023-07-24T04:37:58;3.25;;;1.55;;
25846;SDS011;13676;50.168;8.568;2023-07-24T04:40:25;2.17;;;1.70;;
25846;SDS011;13676;50.168;8.568;2023-07-24T04:42:51;2.83;;;1.67;;
25846;SDS011;13676;50.168;8.568;2023-07-24T04:45:16;3.38;;;1.95;;
25846;SDS011;13676;50.168;8.568;2023-07-24T04:47:42;3.80;;;1.90;;
25846;SDS011;13676;50.168;8.568;2023-07-24T04:50:07;2.20;;;1.45;;
25846;SDS011;13676;50.168;8.568;2023-07-24T04:52:34;2.17;;;1.80;;
25846;SDS011;13676;50.168;8.568;2023-07-24T04:54:59;2.75;;;1.80;;
25846;SDS011;13676;50.168;8.568;2023-07-24T04:57:25;2.72;;;1.48;;
25846;SDS011;13676;50.168;8.568;2023-07-24T04:59:50;2.55;;;1.92;;
25846;SDS011;13676;50.168;8.568;2023-07-24T05:02:16;2.10;;;1.70;;
25846;SDS011;13676;50.168;8.568;2023-07-24T05:04:42;2.83;;;2.00;;
25846;SDS011;13676;50.168;8.568;2023-07-24T05:07:07;3.08;;;2.10;;
25846;SDS011;13676;50.168;8.568;2023-07-24T05:09:32;2.28;;;2.00;;
25846;SDS011;13676;50.168;8.568;2023-07-24T05:11:58;3.38;;;2.33;;
25846;SDS011;13676;50.168;8.568;2023-07-24T05:14:24;4.25;;;2.17;;
25846;SDS011;13676;50.168;8.568;2023-07-24T05:16:52;3.03;;;2.10;;
25846;SDS011;13676;50.168;8.568;2023-07-24T05:19:17;3.00;;;2.00;;
25846;SDS011;13676;50.168;8.568;2023-07-24T05:21:43;2.47;;;1.80;;
25846;SDS011;13676;50.168;8.568;2023-07-24T05:24:09;3.85;;;2.05;;
25846;SDS011;13676;50.168;8.568;2023-07-24T05:26:37;3.72;;;2.30;;
25846;SDS011;13676;50.168;8.568;2023-07-24T05:29:06;3.28;;;2.03;;
25846;SDS011;13676;50.168;8.568;2023-07-24T05:31:33;2.65;;;2.00;;
25846;SDS011;13676;50.168;8.568;2023-07-24T05:34:01;3.50;;;2.08;;
25846;SDS011;13676;50.168;8.568;2023-07-24T05:36:30;4.03;;;2.55;;
25846;SDS011;13676;50.168;8.568;2023-07-24T05:38:56;3.40;;;2.10;;
25846;SDS011;13676;50.168;8.568;2023-07-24T05:41:22;3.53;;;2.33;;
25846;SDS011;13676;50.168;8.568;2023-07-24T05:43:48;3.42;;;2.40;;
25846;SDS011;13676;50.168;8.568;2023-07-24T05:46:15;3.08;;;2.55;;
25846;SDS011;13676;50.168;8.568;2023-07-24T05:48:41;2.35;;;2.03;;
25846;SDS011;13676;50.168;8.568;2023-07-24T05:51:06;3.08;;;2.17;;
25846;SDS011;13676;50.168;8.568;2023-07-24T05:53:33;2.67;;;2.17;;
25846;SDS011;13676;50.168;8.568;2023-07-24T05:55:59;2.95;;;2.28;;
25846;SDS011;13676;50.168;8.568;2023-07-24T05:58:25;3.47;;;2.22;;
25846;SDS011;13676;50.168;8.568;2023-07-24T06:00:53;4.60;;;1.95;;
25846;SDS011;13676;50.168;8.568;2023-07-24T06:03:20;3.43;;;2.37;;
25846;SDS011;13676;50.168;8.568;2023-07-24T06:05:50;2.67;;;2.00;;
25846;SDS011;13676;50.168;8.568;2023-07-24T06:08:16;3.25;;;2.20;;
25846;SDS011;13676;50.168;8.568;2023-07-24T06:10:41;3.58;;;2.30;;
25846;SDS011;13676;50.168;8.568;2023-07-24T06:13:09;2.38;;;2.00;;
25846;SDS011;13676;50.168;8.568;2023-07-24T06:15:35;2.92;;;1.85;;
25846;SDS011;13676;50.168;8.568;2023-07-24T06:18:00;3.20;;;1.77;;
25846;SDS011;13676;50.168;8.568;2023-07-24T06:20:26;2.60;;;2.05;;
25846;SDS011;13676;50.168;8.568;2023-07-24T06:22:52;3.38;;;2.63;;
25846;SDS011;13676;50.168;8.568;2023-07-24T06:25:18;4.50;;;2.15;;
25846;SDS011;13676;50.168;8.568;2023-07-24T06:27:43;3.42;;;2.10;;
25846;SDS011;13676;50.168;8.568;2023-07-24T06:30:09;2.88;;;1.98;;
25846;SDS011;13676;50.168;8.568;2023-07-24T06:32:34;4.47;;;2.53;;
25846;SDS011;13676;50.168;8.568;2023-07-24T06:35:00;3.25;;;2.00;;
25846;SDS011;13676;50.168;8.568;2023-07-24T06:37:26;4.45;;;2.35;;
25846;SDS011;13676;50.168;8.568;2023-07-24T06:39:52;2.58;;;1.83;;
25846;SDS011;13676;50.168;8.568;2023-07-24T06:42:17;2.28;;;1.98;;
25846;SDS011;13676;50.168;8.568;2023-07-24T06:44:43;4.50;;;2.80;;
25846;SDS011;13676;50.168;8.568;2023-07-24T06:47:09;2.33;;;1.67;;
25846;SDS011;13676;50.168;8.568;2023-07-24T06:49:34;3.13;;;1.92;;
25846;SDS011;13676;50.168;8.568;2023-07-24T06:52:00;2.55;;;2.00;;
25846;SDS011;13676;50.168;8.568;2023-07-24T06:54:26;3.20;;;1.67;;
25846;SDS011;13676;50.168;8.568;2023-07-24T06:56:51;2.83;;;1.85;;
25846;SDS011;13676;50.168;8.568;2023-07-24T06:59:17;3.00;;;2.05;;
25846;SDS011;13676;50.168;8.568;2023-07-24T07:01:43;3.03;;;1.70;;
25846;SDS011;13676;50.168;8.568;2023-07-24T07:04:08;3.03;;;2.10;;
25846;SDS011;13676;50.168;8.568;2023-07-24T07:06:33;2.58;;;2.03;;
25846;SDS011;13676;50.168;8.568;2023-07-24T07:08:59;3.58;;;1.90;;
25846;SDS011;13676;50.168;8.568;2023-07-24T07:11:24;4.38;;;2.30;;
25846;SDS011;13676;50.168;8.568;2023-07-24T07:13:50;2.63;;;1.90;;
25846;SDS011;13676;50.168;8.568;2023-07-24T07:16:15;2.78;;;1.90;;
25846;SDS011;13676;50.168;8.568;2023-07-24T07:18:43;4.53;;;2.40;;
25846;SDS011;13676;50.168;8.568;2023-07-24T07:21:09;3.88;;;2.10;;
25846;SDS011;13676;50.168;8.568;2023-07-24T07:23:35;4.97;;;2.80;;
25846;SDS011;13676;50.168;8.568;2023-07-24T07:26:00;2.85;;;2.20;;
25846;SDS011;13676;50.168;8.568;2023-07-24T07:28:26;3.75;;;2.50;;
25846;SDS011;13676;50.168;8.568;2023-07-24T07:30:51;4.32;;;2.40;;
25846;SDS011;13676;50.168;8.568;2023-07-24T07:33:17;4.05;;;2.50;;
25846;SDS011;13676;50.168;8.568;2023-07-24T07:35:42;4.30;;;2.30;;
25846;SDS011;13676;50.168;8.568;2023-07-24T07:38:09;3.15;;;2.58;;
25846;SDS011;13676;50.168;8.568;2023-07-24T07:40:36;4.25;;;2.42;;
25846;SDS011;13676;50.168;8.568;2023-07-24T07:45:29;4.10;;;2.28;;
25846;SDS011;13676;50.168;8.568;2023-07-24T07:47:55;3.55;;;2.00;;
25846;SDS011;13676;50.168;8.568;2023-07-24T07:50:20;3.28;;;2.35;;
25846;SDS011;13676;50.168;8.568;2023-07-24T07:52:48;7.28;;;3.15;;
25846;SDS011;13676;50.168;8.568;2023-07-24T07:55:16;5.22;;;2.50;;
25846;SDS011;13676;50.168;8.568;2023-07-24T07:57:42;5.10;;;2.90;;
25846;SDS011;13676;50.168;8.568;2023-07-24T08:00:08;4.22;;;2.50;;
25846;SDS011;13676;50.168;8.568;2023-07-24T08:02:34;6.63;;;2.63;;
25846;SDS011;13676;50.168;8.568;2023-07-24T08:05:05;3.70;;;2.72;;
25846;SDS011;13676;50.168;8.568;2023-07-24T08:07:33;6.05;;;2.30;;
25846;SDS011;13676;50.168;8.568;2023-07-24T08:09:58;6.13;;;2.67;;
25846;SDS011;13676;50.168;8.568;2023-07-24T08:12:24;6.00;;;2.63;;
25846;SDS011;13676;50.168;8.568;2023-07-24T08:14:50;2.85;;;2.33;;
25846;SDS011;13676;50.168;8.568;2023-07-24T08:17:16;5.38;;;2.63;;
25846;SDS011;13676;50.168;8.568;2023-07-24T08:19:41;2.50;;;2.20;;
25846;SDS011;13676;50.168;8.568;2023-07-24T08:22:07;4.28;;;2.33;;
25846;SDS011;13676;50.168;8.568;2023-07-24T08:24:35;2.80;;;2.00;;
25846;SDS011;13676;50.168;8.568;2023-07-24T08:27:02;2.95;;;2.40;;
25846;SDS011;13676;50.168;8.568;2023-07-24T08:29:29;5.80;;;3.28;;
25846;SDS011;13676;50.168;8.568;2023-07-24T08:31:56;6.35;;;3.00;;
25846;SDS011;13676;50.168;8.568;2023-07-24T08:34:22;4.22;;;2.42;;
25846;SDS011;13676;50.168;8.568;2023-07-24T08:36:48;3.78;;;2.25;;
25846;SDS011;13676;50.168;8.568;2023-07-24T08:39:14;5.25;;;2.17;;
25846;SDS011;13676;50.168;8.568;2023-07-24T08:41:40;5.70;;;2.50;;
25846;SDS011;13676;50.168;8.568;2023-07-24T08:44:08;4.45;;;2.42;;
25846;SDS011;13676;50.168;8.568;2023-07-24T08:46:37;4.28;;;2.72;;
25846;SDS011;13676;50.168;8.568;2023-07-24T08:49:17;3.78;;;2.75;;
25846;SDS011;13676;50.168;8.568;2023-07-24T08:51:43;4.05;;;2.50;;
25846;SDS011;13676;50.168;8.568;2023-07-24T08:54:11;3.93;;;2.90;;
25846;SDS011;13676;50.168;8.568;2023-07-24T08:56:38;5.03;;;2.70;;
25846;SDS011;13676;50.168;8.568;2023-07-24T08:59:13;5.55;;;3.00;;
25846;SDS011;13676;50.168;8.568;2023-07-24T09:01:40;6.05;;;2.80;;
25846;SDS011;13676;50.168;8.568;2023-07-24T09:04:05;6.88;;;2.58;;
25846;SDS011;13676;50.168;8.568;2023-07-24T09:06:32;2.55;;;2.25;;
25846;SDS011;13676;50.168;8.568;2023-07-24T09:08:58;4.03;;;2.50;;
25846;SDS011;13676;50.168;8.568;2023-07-24T09:11:25;4.75;;;2.72;;
25846;SDS011;13676;50.168;8.568;2023-07-24T09:13:51;4.15;;;2.90;;
25846;SDS011;13676;50.168;8.568;2023-07-24T09:16:26;3.15;;;2.10;;
25846;SDS011;13676;50.168;8.568;2023-07-24T09:18:52;3.70;;;2.20;;
25846;SDS011;13676;50.168;8.568;2023-07-24T09:21:30;3.60;;;2.30;;
25846;SDS011;13676;50.168;8.568;2023-07-24T09:24:08;4.07;;;2.50;;
25846;SDS011;13676;50.168;8.568;2023-07-24T09:26:48;3.80;;;2.22;;
25846;SDS011;13676;50.168;8.568;2023-07-24T09:29:14;3.67;;;2.15;;
25846;SDS011;13676;50.168;8.568;2023-07-24T09:31:39;5.70;;;2.28;;
25846;SDS011;13676;50.168;8.568;2023-07-24T09:34:13;2.88;;;2.08;;
25846;SDS011;13676;50.168;8.568;2023-07-24T09:36:42;8.15;;;2.40;;
25846;SDS011;13676;50.168;8.568;2023-07-24T09:39:09;2.60;;;2.20;;
25846;SDS011;13676;50.168;8.568;2023-07-24T09:41:38;2.92;;;2.13;;
25846;SDS011;13676;50.168;8.568;2023-07-24T09:44:05;3.28;;;2.30;;
25846;SDS011;13676;50.168;8.568;2023-07-24T09:46:31;9.43;;;3.03;;
25846;SDS011;13676;50.168;8.568;2023-07-24T09:48:58;4.38;;;2.35;;
25846;SDS011;13676;50.168;8.568;2023-07-24T09:51:26;3.05;;;2.25;;
25846;SDS011;13676;50.168;8.568;2023-07-24T09:56:25;3.47;;;2.28;;
25846;SDS011;13676;50.168;8.568;2023-07-24T09:58:52;3.63;;;2.50;;
25846;SDS011;13676;50.168;8.568;2023-07-24T10:01:21;3.42;;;2.40;;
25846;SDS011;13676;50.168;8.568;2023-07-24T10:03:47;6.22;;;2.45;;
25846;SDS011;13676;50.168;8.568;2023-07-24T10:06:14;7.80;;;2.67;;
25846;SDS011;13676;50.168;8.568;2023-07-24T10:08:42;4.32;;;2.20;;
25846;SDS011;13676;50.168;8.568;2023-07-24T10:11:08;3.45;;;2.28;;
25846;SDS011;13676;50.168;8.568;2023-07-24T10:13:34;3.23;;;2.47;;
25846;SDS011;13676;50.168;8.568;2023-07-24T10:16:01;3.97;;;2.47;;
25846;SDS011;13676;50.168;8.568;2023-07-24T10:18:30;7.68;;;2.63;;
25846;SDS011;13676;50.168;8.568;2023-07-24T10:21:05;6.35;;;2.80;;
25846;SDS011;13676;50.168;8.568;2023-07-24T10:23:33;7.70;;;3.03;;
25846;SDS011;13676;50.168;8.568;2023-07-24T10:26:03;4.47;;;3.05;;
25846;SDS011;13676;50.168;8.568;2023-07-24T10:28:33;4.20;;;2.90;;
25846;SDS011;13676;50.168;8.568;2023-07-24T10:31:00;6.28;;;3.20;;
25846;SDS011;13676;50.168;8.568;2023-07-24T10:33:29;3.42;;;2.58;;
25846;SDS011;13676;50.168;8.568;2023-07-24T10:36:03;4.57;;;3.00;;
25846;SDS011;13676;50.168;8.568;2023-07-24T10:38:36;5.00;;;3.13;;
25846;SDS011;13676;50.168;8.568;2023-07-24T10:41:05;5.38;;;3.00;;
25846;SDS011;13676;50.168;8.568;2023-07-24T10:46:08;5.18;;;2.80;;
25846;SDS011;13676;50.168;8.568;2023-07-24T10:48:35;5.28;;;3.33;;
25846;SDS011;13676;50.168;8.568;2023-07-24T10:51:07;6.78;;;3.78;;
25846;SDS011;13676;50.168;8.568;2023-07-24T10:53:35;3.95;;;3.20;;
25846;SDS011;13676;50.168;8.568;2023-07-24T10:56:02;6.93;;;3.45;;
25846;SDS011;13676;50.168;8.568;2023-07-24T10:58:29;5.35;;;3.53;;
25846;SDS011;13676;50.168;8.568;2023-07-24T11:00:56;4.05;;;3.03;;
25846;SDS011;13676;50.168;8.568;2023-07-24T11:03:24;5.30;;;3.70;;
25846;SDS011;13676;50.168;8.568;2023-07-24T11:05:50;6.35;;;4.35;;
25846;SDS011;13676;50.168;8.568;2023-07-24T11:08:18;8.40;;;3.95;;
25846;SDS011;13676;50.168;8.568;2023-07-24T11:10:49;5.15;;;3.42;;
25846;SDS011;13676;50.168;8.568;2023-07-24T11:13:21;4.68;;;3.45;;
25846;SDS011;13676;50.168;8.568;2023-07-24T11:15:48;6.15;;;3.40;;
25846;SDS011;13676;50.168;8.568;2023-07-24T11:18:16;4.13;;;3.30;;
25846;SDS011;13676;50.168;8.568;2023-07-24T11:20:46;7.15;;;3.20;;
25846;SDS011;13676;50.168;8.568;2023-07-24T11:23:13;5.00;;;3.35;;
25846;SDS011;13676;50.168;8.568;2023-07-24T11:25:39;4.60;;;3.38;;
25846;SDS011;13676;50.168;8.568;2023-07-24T11:28:09;4.03;;;3.35;;
25846;SDS011;13676;50.168;8.568;2023-07-24T11:30:35;4.65;;;3.28;;
25846;SDS011;13676;50.168;8.568;2023-07-24T11:33:02;4.57;;;3.30;;
25846;SDS011;13676;50.168;8.568;2023-07-24T11:35:28;4.30;;;3.25;;
25846;SDS011;13676;50.168;8.568;2023-07-24T11:37:54;3.75;;;2.70;;
25846;SDS011;13676;50.168;8.568;2023-07-24T11:40:21;5.43;;;3.60;;
25846;SDS011;13676;50.168;8.568;2023-07-24T11:42:47;3.03;;;2.55;;
25846;SDS011;13676;50.168;8.568;2023-07-24T11:45:13;4.23;;;3.33;;
25846;SDS011;13676;50.168;8.568;2023-07-24T11:50:13;6.28;;;3.45;;
25846;SDS011;13676;50.168;8.568;2023-07-24T11:52:43;3.42;;;3.10;;
25846;SDS011;13676;50.168;8.568;2023-07-24T11:55:11;7.03;;;3.90;;
25846;SDS011;13676;50.168;8.568;2023-07-24T11:57:37;4.50;;;3.20;;
25846;SDS011;13676;50.168;8.568;2023-07-24T12:00:04;4.90;;;3.28;;
25846;SDS011;13676;50.168;8.568;2023-07-24T12:02:31;5.75;;;3.22;;
25846;SDS011;13676;50.168;8.568;2023-07-24T12:04:58;7.10;;;3.10;;
25846;SDS011;13676;50.168;8.568;2023-07-24T12:07:33;4.13;;;3.35;;
25846;SDS011;13676;50.168;8.568;2023-07-24T12:10:02;5.43;;;3.17;;
25846;SDS011;13676;50.168;8.568;2023-07-24T12:12:43;4.25;;;3.22;;
25846;SDS011;13676;50.168;8.568;2023-07-24T12:15:13;7.13;;;2.85;;
25846;SDS011;13676;50.168;8.568;2023-07-24T12:17:39;3.80;;;2.92;;
25846;SDS011;13676;50.168;8.568;2023-07-24T12:20:07;4.20;;;2.92;;
25846;SDS011;13676;50.168;8.568;2023-07-24T12:22:37;3.72;;;3.00;;
25846;SDS011;13676;50.168;8.568;2023-07-24T12:25:04;5.75;;;3.30;;
25846;SDS011;13676;50.168;8.568;2023-07-24T12:27:30;5.80;;;3.30;;
25846;SDS011;13676;50.168;8.568;2023-07-24T12:29:56;4.57;;;2.88;;
25846;SDS011;13676;50.168;8.568;2023-07-24T12:32:21;8.43;;;3.45;;
25846;SDS011;13676;50.168;8.568;2023-07-24T12:34:48;5.40;;;3.03;;
25846;SDS011;13676;50.168;8.568;2023-07-24T12:37:15;4.93;;;3.30;;
25846;SDS011;13676;50.168;8.568;2023-07-24T12:39:40;3.85;;;2.78;;
25846;SDS011;13676;50.168;8.568;2023-07-24T12:42:06;7.10;;;3.05;;
25846;SDS011;13676;50.168;8.568;2023-07-24T12:44:32;6.78;;;3.08;;
25846;SDS011;13676;50.168;8.568;2023-07-24T12:46:58;6.18;;;3.00;;
25846;SDS011;13676;50.168;8.568;2023-07-24T12:49:23;6.05;;;2.90;;
25846;SDS011;13676;50.168;8.568;2023-07-24T12:51:49;7.18;;;3.20;;
25846;SDS011;13676;50.168;8.568;2023-07-24T12:54:17;2.97;;;2.45;;
25846;SDS011;13676;50.168;8.568;2023-07-24T12:56:44;8.35;;;3.25;;
25846;SDS011;13676;50.168;8.568;2023-07-24T12:59:11;4.00;;;2.97;;
25846;SDS011;13676;50.168;8.568;2023-07-24T13:01:36;6.90;;;3.08;;
25846;SDS011;13676;50.168;8.568;2023-07-24T13:04:02;5.57;;;2.92;;
25846;SDS011;13676;50.168;8.568;2023-07-24T13:06:28;3.75;;;3.13;;
25846;SDS011;13676;50.168;8.568;2023-07-24T13:08:53;4.78;;;2.95;;
25846;SDS011;13676;50.168;8.568;2023-07-24T13:11:18;4.65;;;2.47;;
25846;SDS011;13676;50.168;8.568;2023-07-24T13:13:44;3.67;;;2.85;;
25846;SDS011;13676;50.168;8.568;2023-07-24T13:16:09;7.05;;;3.30;;
25846;SDS011;13676;50.168;8.568;2023-07-24T13:18:34;5.72;;;3.30;;
25846;SDS011;13676;50.168;8.568;2023-07-24T13:21:01;3.97;;;2.75;;
25846;SDS011;13676;50.168;8.568;2023-07-24T13:23:28;6.15;;;3.40;;
25846;SDS011;13676;50.168;8.568;2023-07-24T13:25:54;3.75;;;2.63;;
25846;SDS011;13676;50.168;8.568;2023-07-24T13:28:20;4.78;;;2.60;;
25846;SDS011;13676;50.168;8.568;2023-07-24T13:30:45;4.88;;;3.00;;
25846;SDS011;13676;50.168;8.568;2023-07-24T13:33:12;5.82;;;2.90;;
25846;SDS011;13676;50.168;8.568;2023-07-24T13:35:38;6.78;;;2.80;;
25846;SDS011;13676;50.168;8.568;2023-07-24T13:38:03;4.22;;;2.70;;
25846;SDS011;13676;50.168;8.568;2023-07-24T13:40:29;7.15;;;2.80;;
25846;SDS011;13676;50.168;8.568;2023-07-24T13:42:55;3.15;;;2.67;;
25846;SDS011;13676;50.168;8.568;2023-07-24T13:45:21;5.00;;;2.78;;
25846;SDS011;13676;50.168;8.568;2023-07-24T13:47:49;3.30;;;2.83;;
25846;SDS011;13676;50.168;8.568;2023-07-24T13:50:15;4.30;;;3.13;;
25846;SDS011;13676;50.168;8.568;2023-07-24T13:52:41;3.13;;;2.67;;
25846;SDS011;13676;50.168;8.568;2023-07-24T13:55:06;3.10;;;2.70;;
25846;SDS011;13676;50.168;8.568;2023-07-24T13:57:33;4.43;;;2.80;;
25846;SDS011;13676;50.168;8.568;2023-07-24T13:59:58;4.43;;;3.05;;
25846;SDS011;13676;50.168;8.568;2023-07-24T14:02:24;5.57;;;3.08;;
25846;SDS011;13676;50.168;8.568;2023-07-24T14:04:49;6.65;;;3.10;;
25846;SDS011;13676;50.168;8.568;2023-07-24T14:07:15;8.30;;;3.10;;
25846;SDS011;13676;50.168;8.568;2023-07-24T14:09:44;3.47;;;2.58;;
25846;SDS011;13676;50.168;8.568;2023-07-24T14:12:11;8.20;;;3.15;;
25846;SDS011;13676;50.168;8.568;2023-07-24T14:14:36;8.20;;;2.95;;
25846;SDS011;13676;50.168;8.568;2023-07-24T14:17:03;8.45;;;3.20;;
25846;SDS011;13676;50.168;8.568;2023-07-24T14:19:31;4.45;;;3.30;;
25846;SDS011;13676;50.168;8.568;2023-07-24T14:21:58;8.27;;;3.28;;
25846;SDS011;13676;50.168;8.568;2023-07-24T14:24:24;6.68;;;3.20;;
25846;SDS011;13676;50.168;8.568;2023-07-24T14:26:50;4.13;;;2.65;;
25846;SDS011;13676;50.168;8.568;2023-07-24T14:29:15;2.70;;;2.03;;
25846;SDS011;13676;50.168;8.568;2023-07-24T14:32:01;4.57;;;2.45;;
25846;SDS011;13676;50.168;8.568;2023-07-24T14:34:27;5.10;;;2.45;;
25846;SDS011;13676;50.168;8.568;2023-07-24T14:36:52;3.83;;;2.50;;
25846;SDS011;13676;50.168;8.568;2023-07-24T14:39:18;2.25;;;2.05;;
25846;SDS011;13676;50.168;8.568;2023-07-24T14:41:43;3.95;;;2.17;;
25846;SDS011;13676;50.168;8.568;2023-07-24T14:44:11;3.60;;;1.80;;
25846;SDS011;13676;50.168;8.568;2023-07-24T14:46:37;2.65;;;1.48;;
25846;SDS011;13676;50.168;8.568;2023-07-24T14:51:30;1.60;;;1.10;;
25846;SDS011;13676;50.168;8.568;2023-07-24T14:53:55;5.05;;;1.38;;
25846;SDS011;13676;50.168;8.568;2023-07-24T14:56:21;2.83;;;1.40;;
25846;SDS011;13676;50.168;8.568;2023-07-24T14:58:47;2.47;;;1.50;;
25846;SDS011;13676;50.168;8.568;2023-07-24T15:01:12;2.00;;;1.77;;
25846;SDS011;13676;50.168;8.568;2023-07-24T15:03:38;4.28;;;1.90;;
25846;SDS011;13676;50.168;8.568;2023-07-24T15:06:04;3.22;;;2.35;;
25846;SDS011;13676;50.168;8.568;2023-07-24T15:08:32;2.83;;;2.20;;
25846;SDS011;13676;50.168;8.568;2023-07-24T15:10:57;3.00;;;2.17;;
25846;SDS011;13676;50.168;8.568;2023-07-24T15:13:24;6.13;;;2.17;;
25846;SDS011;13676;50.168;8.568;2023-07-24T15:15:49;4.15;;;1.75;;
25846;SDS011;13676;50.168;8.568;2023-07-24T15:18:15;5.65;;;2.40;;
25846;SDS011;13676;50.168;8.568;2023-07-24T15:20:40;2.85;;;1.77;;
25846;SDS011;13676;50.168;8.568;2023-07-24T15:23:06;2.20;;;1.90;;